sensor_id;sensor_type;location;lat;lon;timestamp;P1;durP1;ratioP1;P2;durP2;ratioP2
58553;SDS011;48119;53.218;6.576;2023-07-29T00:01:12;6.88;;;4.68;;
58553;SDS011;48119;53.218;6.576;2023-07-29T00:03:38;9.63;;;5.18;;
58553;SDS011;48119;53.218;6.576;2023-07-29T00:06:03;9.13;;;5.53;;
58553;SDS011;48119;53.218;6.576;2023-07-29T00:08:29;7.88;;;5.40;;
58553;SDS011;48119;53.218;6.576;2023-07-29T00:10:55;6.15;;;5.07;;
58553;SDS011;48119;53.218;6.576;2023-07-29T00:13:21;6.97;;;4.55;;
58553;SDS011;48119;53.218;6.576;2023-07-29T00:15:46;9.77;;;6.18;;
58553;SDS011;48119;53.218;6.576;2023-07-29T00:18:12;7.25;;;5.25;;
58553;SDS011;48119;53.218;6.576;2023-07-29T00:20:38;7.97;;;5.63;;
58553;SDS011;48119;53.218;6.576;2023-07-29T00:23:04;7.68;;;5.68;;
58553;SDS011;48119;53.218;6.576;2023-07-29T00:25:30;8.02;;;5.68;;
58553;SDS011;48119;53.218;6.576;2023-07-29T00:27:55;7.10;;;5.40;;
58553;SDS011;48119;53.218;6.576;2023-07-29T00:30:22;9.15;;;5.60;;
58553;SDS011;48119;53.218;6.576;2023-07-29T00:32:47;10.05;;;6.07;;
58553;SDS011;48119;53.218;6.576;2023-07-29T00:35:13;6.63;;;5.05;;
58553;SDS011;48119;53.218;6.576;2023-07-29T00:37:39;8.23;;;5.20;;
58553;SDS011;48119;53.218;6.576;2023-07-29T00:40:09;6.25;;;5.03;;
58553;SDS011;48119;53.218;6.576;2023-07-29T00:42:41;7.22;;;5.43;;
58553;SDS011;48119;53.218;6.576;2023-07-29T00:45:08;6.60;;;5.70;;
58553;SDS011;48119;53.218;6.576;2023-07-29T00:47:34;7.47;;;5.50;;
58553;SDS011;48119;53.218;6.576;2023-07-29T00:50:00;9.77;;;6.05;;
58553;SDS011;48119;53.218;6.576;2023-07-29T00:52:26;8.88;;;5.40;;
58553;SDS011;48119;53.218;6.576;2023-07-29T00:54:52;12.15;;;6.93;;
58553;SDS011;48119;53.218;6.576;2023-07-29T00:57:18;7.93;;;6.25;;
58553;SDS011;48119;53.218;6.576;2023-07-29T00:59:45;7.88;;;6.15;;
58553;SDS011;48119;53.218;6.576;2023-07-29T01:02:11;7.63;;;5.95;;
58553;SDS011;48119;53.218;6.576;2023-07-29T01:04:37;7.47;;;4.78;;
58553;SDS011;48119;53.218;6.576;2023-07-29T01:07:23;7.43;;;5.30;;
58553;SDS011;48119;53.218;6.576;2023-07-29T01:16:08;7.50;;;5.47;;
58553;SDS011;48119;53.218;6.576;2023-07-29T01:18:40;8.57;;;6.28;;
58553;SDS011;48119;53.218;6.576;2023-07-29T01:21:12;9.65;;;6.32;;
58553;SDS011;48119;53.218;6.576;2023-07-29T01:23:39;7.32;;;5.65;;
58553;SDS011;48119;53.218;6.576;2023-07-29T01:26:05;10.57;;;6.45;;
58553;SDS011;48119;53.218;6.576;2023-07-29T01:28:30;10.27;;;6.28;;
58553;SDS011;48119;53.218;6.576;2023-07-29T01:31:09;7.85;;;5.68;;
58553;SDS011;48119;53.218;6.576;2023-07-29T01:33:47;8.95;;;6.78;;
58553;SDS011;48119;53.218;6.576;2023-07-29T01:36:20;8.68;;;5.90;;
58553;SDS011;48119;53.218;6.576;2023-07-29T01:38:48;9.13;;;5.82;;
58553;SDS011;48119;53.218;6.576;2023-07-29T01:41:16;7.45;;;5.80;;
58553;SDS011;48119;53.218;6.576;2023-07-29T01:43:43;9.95;;;6.40;;
58553;SDS011;48119;53.218;6.576;2023-07-29T01:46:10;9.52;;;6.15;;
58553;SDS011;48119;53.218;6.576;2023-07-29T01:48:39;8.65;;;5.80;;
58553;SDS011;48119;53.218;6.576;2023-07-29T01:51:05;8.38;;;5.50;;
58553;SDS011;48119;53.218;6.576;2023-07-29T01:53:32;8.43;;;6.07;;
58553;SDS011;48119;53.218;6.576;2023-07-29T01:55:58;16.02;;;6.55;;
58553;SDS011;48119;53.218;6.576;2023-07-29T01:58:24;9.35;;;6.60;;
58553;SDS011;48119;53.218;6.576;2023-07-29T02:00:50;9.45;;;6.60;;
58553;SDS011;48119;53.218;6.576;2023-07-29T02:03:16;7.13;;;5.82;;
58553;SDS011;48119;53.218;6.576;2023-07-29T02:05:42;7.22;;;6.22;;
58553;SDS011;48119;53.218;6.576;2023-07-29T02:08:09;12.88;;;7.00;;
58553;SDS011;48119;53.218;6.576;2023-07-29T02:10:35;8.60;;;6.95;;
58553;SDS011;48119;53.218;6.576;2023-07-29T02:13:01;9.27;;;6.88;;
58553;SDS011;48119;53.218;6.576;2023-07-29T02:15:28;9.50;;;6.18;;
58553;SDS011;48119;53.218;6.576;2023-07-29T02:17:53;8.82;;;6.90;;
58553;SDS011;48119;53.218;6.576;2023-07-29T02:20:19;8.88;;;6.40;;
58553;SDS011;48119;53.218;6.576;2023-07-29T02:22:45;7.10;;;5.53;;
58553;SDS011;48119;53.218;6.576;2023-07-29T02:25:12;8.70;;;5.90;;
58553;SDS011;48119;53.218;6.576;2023-07-29T02:27:38;9.45;;;7.07;;
58553;SDS011;48119;53.218;6.576;2023-07-29T02:30:04;9.73;;;5.68;;
58553;SDS011;48119;53.218;6.576;2023-07-29T02:32:30;11.18;;;6.78;;
58553;SDS011;48119;53.218;6.576;2023-07-29T02:34:56;9.45;;;6.38;;
58553;SDS011;48119;53.218;6.576;2023-07-29T02:37:22;9.95;;;6.22;;
58553;SDS011;48119;53.218;6.576;2023-07-29T02:39:48;9.15;;;7.43;;
58553;SDS011;48119;53.218;6.576;2023-07-29T02:42:14;8.32;;;6.68;;
58553;SDS011;48119;53.218;6.576;2023-07-29T02:44:40;11.15;;;6.68;;
58553;SDS011;48119;53.218;6.576;2023-07-29T02:47:06;8.65;;;7.10;;
58553;SDS011;48119;53.218;6.576;2023-07-29T02:49:32;10.63;;;6.50;;
58553;SDS011;48119;53.218;6.576;2023-07-29T02:51:57;10.48;;;6.85;;
58553;SDS011;48119;53.218;6.576;2023-07-29T02:54:23;8.23;;;6.10;;
58553;SDS011;48119;53.218;6.576;2023-07-29T02:56:50;8.00;;;6.28;;
58553;SDS011;48119;53.218;6.576;2023-07-29T02:59:18;7.28;;;6.53;;
58553;SDS011;48119;53.218;6.576;2023-07-29T03:01:45;8.52;;;6.03;;
58553;SDS011;48119;53.218;6.576;2023-07-29T03:04:11;8.32;;;5.97;;
58553;SDS011;48119;53.218;6.576;2023-07-29T03:06:38;7.45;;;5.78;;
58553;SDS011;48119;53.218;6.576;2023-07-29T03:09:06;7.72;;;5.88;;
58553;SDS011;48119;53.218;6.576;2023-07-29T03:11:32;7.88;;;6.18;;
58553;SDS011;48119;53.218;6.576;2023-07-29T03:13:57;7.43;;;5.75;;
58553;SDS011;48119;53.218;6.576;2023-07-29T03:16:23;7.18;;;5.70;;
58553;SDS011;48119;53.218;6.576;2023-07-29T03:18:49;9.38;;;6.60;;
58553;SDS011;48119;53.218;6.576;2023-07-29T03:21:15;9.20;;;6.05;;
58553;SDS011;48119;53.218;6.576;2023-07-29T03:23:44;8.60;;;6.65;;
58553;SDS011;48119;53.218;6.576;2023-07-29T03:26:10;9.25;;;6.43;;
58553;SDS011;48119;53.218;6.576;2023-07-29T03:28:44;7.95;;;5.82;;
58553;SDS011;48119;53.218;6.576;2023-07-29T03:31:10;7.82;;;5.65;;
58553;SDS011;48119;53.218;6.576;2023-07-29T03:33:36;9.32;;;6.63;;
58553;SDS011;48119;53.218;6.576;2023-07-29T03:36:02;7.95;;;6.38;;
58553;SDS011;48119;53.218;6.576;2023-07-29T03:38:28;6.97;;;6.05;;
58553;SDS011;48119;53.218;6.576;2023-07-29T03:40:54;8.23;;;5.82;;
58553;SDS011;48119;53.218;6.576;2023-07-29T03:43:20;9.93;;;6.70;;
58553;SDS011;48119;53.218;6.576;2023-07-29T03:45:45;7.45;;;5.57;;
58553;SDS011;48119;53.218;6.576;2023-07-29T03:48:11;8.73;;;5.72;;
58553;SDS011;48119;53.218;6.576;2023-07-29T03:50:37;8.68;;;5.47;;
58553;SDS011;48119;53.218;6.576;2023-07-29T03:53:03;8.77;;;6.05;;
58553;SDS011;48119;53.218;6.576;2023-07-29T03:55:29;7.38;;;5.53;;
58553;SDS011;48119;53.218;6.576;2023-07-29T03:57:58;8.13;;;5.88;;
58553;SDS011;48119;53.218;6.576;2023-07-29T04:00:25;6.95;;;4.72;;
58553;SDS011;48119;53.218;6.576;2023-07-29T04:02:51;7.90;;;5.50;;
58553;SDS011;48119;53.218;6.576;2023-07-29T04:05:17;10.15;;;5.82;;
58553;SDS011;48119;53.218;6.576;2023-07-29T04:07:43;12.55;;;5.45;;
58553;SDS011;48119;53.218;6.576;2023-07-29T04:10:09;7.00;;;5.43;;
58553;SDS011;48119;53.218;6.576;2023-07-29T04:12:35;7.18;;;5.57;;
58553;SDS011;48119;53.218;6.576;2023-07-29T04:15:02;8.20;;;5.40;;
58553;SDS011;48119;53.218;6.576;2023-07-29T04:17:28;9.20;;;5.70;;
58553;SDS011;48119;53.218;6.576;2023-07-29T04:19:53;9.10;;;5.55;;
58553;SDS011;48119;53.218;6.576;2023-07-29T04:22:19;6.88;;;5.43;;
58553;SDS011;48119;53.218;6.576;2023-07-29T04:24:45;8.05;;;5.80;;
58553;SDS011;48119;53.218;6.576;2023-07-29T04:27:11;7.57;;;5.20;;
58553;SDS011;48119;53.218;6.576;2023-07-29T04:29:36;6.30;;;4.47;;
58553;SDS011;48119;53.218;6.576;2023-07-29T04:32:03;8.43;;;5.00;;
58553;SDS011;48119;53.218;6.576;2023-07-29T04:34:29;6.55;;;4.70;;
58553;SDS011;48119;53.218;6.576;2023-07-29T04:36:58;12.57;;;4.85;;
58553;SDS011;48119;53.218;6.576;2023-07-29T04:39:23;5.65;;;4.10;;
58553;SDS011;48119;53.218;6.576;2023-07-29T04:41:49;7.45;;;4.30;;
58553;SDS011;48119;53.218;6.576;2023-07-29T04:44:15;6.63;;;4.18;;
58553;SDS011;48119;53.218;6.576;2023-07-29T04:46:41;8.10;;;4.43;;
58553;SDS011;48119;53.218;6.576;2023-07-29T04:49:06;7.22;;;4.50;;
58553;SDS011;48119;53.218;6.576;2023-07-29T04:51:32;7.82;;;4.40;;
58553;SDS011;48119;53.218;6.576;2023-07-29T04:53:59;5.80;;;3.97;;
58553;SDS011;48119;53.218;6.576;2023-07-29T04:56:24;5.38;;;3.25;;
58553;SDS011;48119;53.218;6.576;2023-07-29T04:58:50;4.80;;;3.13;;
58553;SDS011;48119;53.218;6.576;2023-07-29T05:01:16;6.07;;;3.83;;
58553;SDS011;48119;53.218;6.576;2023-07-29T05:03:42;6.35;;;3.78;;
58553;SDS011;48119;53.218;6.576;2023-07-29T05:06:08;5.93;;;3.70;;
58553;SDS011;48119;53.218;6.576;2023-07-29T05:08:33;4.88;;;3.25;;
58553;SDS011;48119;53.218;6.576;2023-07-29T05:10:59;5.47;;;3.40;;
58553;SDS011;48119;53.218;6.576;2023-07-29T05:13:25;6.30;;;3.17;;
58553;SDS011;48119;53.218;6.576;2023-07-29T05:15:51;7.22;;;3.30;;
58553;SDS011;48119;53.218;6.576;2023-07-29T05:18:17;6.55;;;2.95;;
58553;SDS011;48119;53.218;6.576;2023-07-29T05:20:43;3.92;;;2.95;;
58553;SDS011;48119;53.218;6.576;2023-07-29T05:23:08;4.90;;;3.28;;
58553;SDS011;48119;53.218;6.576;2023-07-29T05:25:34;6.72;;;3.05;;
58553;SDS011;48119;53.218;6.576;2023-07-29T05:28:00;4.07;;;2.50;;
58553;SDS011;48119;53.218;6.576;2023-07-29T05:30:26;5.43;;;2.97;;
58553;SDS011;48119;53.218;6.576;2023-07-29T05:33:08;5.70;;;2.53;;
58553;SDS011;48119;53.218;6.576;2023-07-29T05:35:37;4.40;;;2.25;;
58553;SDS011;48119;53.218;6.576;2023-07-29T05:38:02;4.45;;;2.72;;
58553;SDS011;48119;53.218;6.576;2023-07-29T05:40:33;5.35;;;2.80;;
58553;SDS011;48119;53.218;6.576;2023-07-29T05:42:58;6.28;;;3.03;;
58553;SDS011;48119;53.218;6.576;2023-07-29T05:45:24;5.85;;;3.03;;
58553;SDS011;48119;53.218;6.576;2023-07-29T05:47:50;5.80;;;2.40;;
58553;SDS011;48119;53.218;6.576;2023-07-29T05:50:16;6.72;;;2.40;;
58553;SDS011;48119;53.218;6.576;2023-07-29T05:52:42;5.03;;;2.25;;
58553;SDS011;48119;53.218;6.576;2023-07-29T05:55:07;5.30;;;2.97;;
58553;SDS011;48119;53.218;6.576;2023-07-29T05:57:33;7.07;;;2.95;;
58553;SDS011;48119;53.218;6.576;2023-07-29T05:59:59;4.28;;;2.70;;
58553;SDS011;48119;53.218;6.576;2023-07-29T06:02:25;5.90;;;2.47;;
58553;SDS011;48119;53.218;6.576;2023-07-29T06:04:50;4.15;;;2.33;;
58553;SDS011;48119;53.218;6.576;2023-07-29T06:07:16;7.40;;;2.80;;
58553;SDS011;48119;53.218;6.576;2023-07-29T06:09:42;5.38;;;2.58;;
58553;SDS011;48119;53.218;6.576;2023-07-29T06:12:08;6.00;;;2.85;;
58553;SDS011;48119;53.218;6.576;2023-07-29T06:14:33;4.50;;;2.40;;
58553;SDS011;48119;53.218;6.576;2023-07-29T06:16:59;6.95;;;2.90;;
58553;SDS011;48119;53.218;6.576;2023-07-29T06:19:25;4.35;;;2.95;;
58553;SDS011;48119;53.218;6.576;2023-07-29T06:21:51;6.38;;;2.97;;
58553;SDS011;48119;53.218;6.576;2023-07-29T06:24:21;5.45;;;2.72;;
58553;SDS011;48119;53.218;6.576;2023-07-29T06:26:46;4.43;;;2.78;;
58553;SDS011;48119;53.218;6.576;2023-07-29T06:29:12;7.70;;;3.20;;
58553;SDS011;48119;53.218;6.576;2023-07-29T06:31:38;7.95;;;3.15;;
58553;SDS011;48119;53.218;6.576;2023-07-29T06:34:03;5.88;;;2.63;;
58553;SDS011;48119;53.218;6.576;2023-07-29T06:36:29;4.78;;;2.70;;
58553;SDS011;48119;53.218;6.576;2023-07-29T06:38:55;6.22;;;3.20;;
58553;SDS011;48119;53.218;6.576;2023-07-29T06:41:21;3.35;;;2.28;;
58553;SDS011;48119;53.218;6.576;2023-07-29T06:43:46;6.40;;;2.83;;
58553;SDS011;48119;53.218;6.576;2023-07-29T06:46:12;6.60;;;3.33;;
58553;SDS011;48119;53.218;6.576;2023-07-29T06:48:38;9.85;;;3.50;;
58553;SDS011;48119;53.218;6.576;2023-07-29T06:51:03;6.93;;;3.05;;
58553;SDS011;48119;53.218;6.576;2023-07-29T06:53:29;6.30;;;2.90;;
58553;SDS011;48119;53.218;6.576;2023-07-29T06:55:55;6.30;;;2.58;;
58553;SDS011;48119;53.218;6.576;2023-07-29T06:58:21;5.57;;;3.10;;
58553;SDS011;48119;53.218;6.576;2023-07-29T07:00:47;7.45;;;3.20;;
58553;SDS011;48119;53.218;6.576;2023-07-29T07:03:13;5.28;;;3.30;;
58553;SDS011;48119;53.218;6.576;2023-07-29T07:05:38;6.97;;;3.00;;
58553;SDS011;48119;53.218;6.576;2023-07-29T07:08:04;5.00;;;3.10;;
58553;SDS011;48119;53.218;6.576;2023-07-29T07:10:30;5.25;;;3.53;;
58553;SDS011;48119;53.218;6.576;2023-07-29T07:12:56;10.02;;;3.70;;
58553;SDS011;48119;53.218;6.576;2023-07-29T07:15:22;15.45;;;3.45;;
58553;SDS011;48119;53.218;6.576;2023-07-29T07:17:57;8.82;;;3.92;;
58553;SDS011;48119;53.218;6.576;2023-07-29T07:20:22;6.50;;;3.20;;
58553;SDS011;48119;53.218;6.576;2023-07-29T07:22:48;8.00;;;3.58;;
58553;SDS011;48119;53.218;6.576;2023-07-29T07:25:16;9.65;;;3.92;;
58553;SDS011;48119;53.218;6.576;2023-07-29T07:27:42;9.55;;;3.60;;
58553;SDS011;48119;53.218;6.576;2023-07-29T07:30:08;6.78;;;3.00;;
58553;SDS011;48119;53.218;6.576;2023-07-29T07:32:34;5.38;;;3.22;;
58553;SDS011;48119;53.218;6.576;2023-07-29T07:35:00;9.55;;;4.00;;
58553;SDS011;48119;53.218;6.576;2023-07-29T07:37:25;7.40;;;3.80;;
58553;SDS011;48119;53.218;6.576;2023-07-29T07:39:51;8.45;;;3.60;;
58553;SDS011;48119;53.218;6.576;2023-07-29T07:42:17;5.78;;;3.70;;
58553;SDS011;48119;53.218;6.576;2023-07-29T07:44:43;7.57;;;3.78;;
58553;SDS011;48119;53.218;6.576;2023-07-29T07:47:08;7.63;;;3.47;;
58553;SDS011;48119;53.218;6.576;2023-07-29T07:49:34;8.20;;;3.70;;
58553;SDS011;48119;53.218;6.576;2023-07-29T07:52:00;7.97;;;2.92;;
58553;SDS011;48119;53.218;6.576;2023-07-29T07:54:26;8.38;;;3.65;;
58553;SDS011;48119;53.218;6.576;2023-07-29T07:56:54;9.60;;;3.63;;
58553;SDS011;48119;53.218;6.576;2023-07-29T07:59:20;6.50;;;3.42;;
58553;SDS011;48119;53.218;6.576;2023-07-29T08:01:46;9.88;;;4.22;;
58553;SDS011;48119;53.218;6.576;2023-07-29T08:04:12;12.30;;;4.03;;
58553;SDS011;48119;53.218;6.576;2023-07-29T08:06:38;6.78;;;3.63;;
58553;SDS011;48119;53.218;6.576;2023-07-29T08:09:04;7.18;;;3.83;;
58553;SDS011;48119;53.218;6.576;2023-07-29T08:11:30;5.05;;;3.33;;
58553;SDS011;48119;53.218;6.576;2023-07-29T08:13:58;7.57;;;4.65;;
58553;SDS011;48119;53.218;6.576;2023-07-29T08:16:24;6.53;;;3.63;;
58553;SDS011;48119;53.218;6.576;2023-07-29T08:18:51;7.90;;;3.33;;
58553;SDS011;48119;53.218;6.576;2023-07-29T08:21:19;10.32;;;3.63;;
58553;SDS011;48119;53.218;6.576;2023-07-29T08:23:45;7.78;;;3.92;;
58553;SDS011;48119;53.218;6.576;2023-07-29T08:26:11;6.68;;;3.33;;
58553;SDS011;48119;53.218;6.576;2023-07-29T08:28:40;8.15;;;3.80;;
58553;SDS011;48119;53.218;6.576;2023-07-29T08:31:06;9.40;;;2.95;;
58553;SDS011;48119;53.218;6.576;2023-07-29T08:33:34;5.70;;;3.03;;
58553;SDS011;48119;53.218;6.576;2023-07-29T08:36:01;8.95;;;3.30;;
58553;SDS011;48119;53.218;6.576;2023-07-29T08:38:27;7.15;;;2.90;;
58553;SDS011;48119;53.218;6.576;2023-07-29T08:41:04;17.52;;;2.65;;
58553;SDS011;48119;53.218;6.576;2023-07-29T08:46:08;4.82;;;2.22;;
58553;SDS011;48119;53.218;6.576;2023-07-29T08:48:42;3.47;;;2.38;;
58553;SDS011;48119;53.218;6.576;2023-07-29T08:51:09;4.32;;;2.42;;
58553;SDS011;48119;53.218;6.576;2023-07-29T08:53:36;7.20;;;3.42;;
58553;SDS011;48119;53.218;6.576;2023-07-29T08:56:06;4.90;;;2.33;;
58553;SDS011;48119;53.218;6.576;2023-07-29T08:58:33;4.15;;;1.98;;
58553;SDS011;48119;53.218;6.576;2023-07-29T09:01:02;5.50;;;2.55;;
58553;SDS011;48119;53.218;6.576;2023-07-29T09:03:39;5.93;;;2.42;;
58553;SDS011;48119;53.218;6.576;2023-07-29T09:06:14;5.10;;;2.25;;
58553;SDS011;48119;53.218;6.576;2023-07-29T09:08:40;4.95;;;2.20;;
58553;SDS011;48119;53.218;6.576;2023-07-29T09:11:06;5.30;;;2.30;;
58553;SDS011;48119;53.218;6.576;2023-07-29T09:13:32;4.30;;;2.25;;
58553;SDS011;48119;53.218;6.576;2023-07-29T09:15:59;5.18;;;1.70;;
58553;SDS011;48119;53.218;6.576;2023-07-29T09:18:26;6.70;;;2.00;;
58553;SDS011;48119;53.218;6.576;2023-07-29T09:20:52;4.97;;;2.22;;
58553;SDS011;48119;53.218;6.576;2023-07-29T09:23:18;3.38;;;2.22;;
58553;SDS011;48119;53.218;6.576;2023-07-29T09:25:47;3.25;;;1.77;;
58553;SDS011;48119;53.218;6.576;2023-07-29T09:28:13;3.67;;;1.80;;
58553;SDS011;48119;53.218;6.576;2023-07-29T09:30:41;4.47;;;2.15;;
58553;SDS011;48119;53.218;6.576;2023-07-29T09:33:08;3.70;;;1.75;;
58553;SDS011;48119;53.218;6.576;2023-07-29T09:35:36;4.03;;;1.52;;
58553;SDS011;48119;53.218;6.576;2023-07-29T09:38:03;3.72;;;1.95;;
58553;SDS011;48119;53.218;6.576;2023-07-29T09:40:39;9.45;;;2.78;;
58553;SDS011;48119;53.218;6.576;2023-07-29T09:43:06;5.40;;;2.08;;
58553;SDS011;48119;53.218;6.576;2023-07-29T09:45:34;5.93;;;1.77;;
58553;SDS011;48119;53.218;6.576;2023-07-29T09:48:01;3.58;;;1.73;;
58553;SDS011;48119;53.218;6.576;2023-07-29T09:50:28;4.40;;;1.42;;
58553;SDS011;48119;53.218;6.576;2023-07-29T09:52:54;3.53;;;1.40;;
58553;SDS011;48119;53.218;6.576;2023-07-29T09:55:23;3.95;;;1.65;;
58553;SDS011;48119;53.218;6.576;2023-07-29T09:57:53;2.80;;;1.33;;
58553;SDS011;48119;53.218;6.576;2023-07-29T10:00:27;3.85;;;1.33;;
58553;SDS011;48119;53.218;6.576;2023-07-29T10:03:04;4.07;;;1.58;;
58553;SDS011;48119;53.218;6.576;2023-07-29T10:05:30;7.88;;;1.50;;
58553;SDS011;48119;53.218;6.576;2023-07-29T10:07:56;2.45;;;1.63;;
58553;SDS011;48119;53.218;6.576;2023-07-29T10:10:25;2.95;;;1.25;;
58553;SDS011;48119;53.218;6.576;2023-07-29T10:13:01;2.72;;;1.27;;
58553;SDS011;48119;53.218;6.576;2023-07-29T10:15:28;6.03;;;1.50;;
58553;SDS011;48119;53.218;6.576;2023-07-29T10:17:55;4.72;;;2.20;;
58553;SDS011;48119;53.218;6.576;2023-07-29T10:20:22;2.55;;;1.52;;
58553;SDS011;48119;53.218;6.576;2023-07-29T10:22:48;1.83;;;1.30;;
58553;SDS011;48119;53.218;6.576;2023-07-29T10:25:16;5.80;;;2.03;;
58553;SDS011;48119;53.218;6.576;2023-07-29T10:27:47;3.58;;;1.83;;
58553;SDS011;48119;53.218;6.576;2023-07-29T10:30:14;2.90;;;1.52;;
58553;SDS011;48119;53.218;6.576;2023-07-29T10:32:44;8.57;;;2.17;;
58553;SDS011;48119;53.218;6.576;2023-07-29T10:35:14;2.97;;;1.50;;
58553;SDS011;48119;53.218;6.576;2023-07-29T10:37:41;4.32;;;1.55;;
58553;SDS011;48119;53.218;6.576;2023-07-29T10:40:08;5.07;;;1.52;;
58553;SDS011;48119;53.218;6.576;2023-07-29T10:42:35;4.70;;;1.80;;
58553;SDS011;48119;53.218;6.576;2023-07-29T10:45:16;4.53;;;1.90;;
58553;SDS011;48119;53.218;6.576;2023-07-29T10:47:43;4.45;;;1.88;;
58553;SDS011;48119;53.218;6.576;2023-07-29T10:50:17;2.58;;;1.40;;
58553;SDS011;48119;53.218;6.576;2023-07-29T10:52:50;3.42;;;1.55;;
58553;SDS011;48119;53.218;6.576;2023-07-29T10:55:27;4.90;;;1.50;;
58553;SDS011;48119;53.218;6.576;2023-07-29T10:58:10;5.30;;;1.63;;
58553;SDS011;48119;53.218;6.576;2023-07-29T11:00:39;4.07;;;1.83;;
58553;SDS011;48119;53.218;6.576;2023-07-29T11:03:07;2.80;;;1.50;;
58553;SDS011;48119;53.218;6.576;2023-07-29T11:05:52;4.00;;;1.48;;
58553;SDS011;48119;53.218;6.576;2023-07-29T11:13:31;3.55;;;1.40;;
58553;SDS011;48119;53.218;6.576;2023-07-29T11:15:58;5.88;;;2.70;;
58553;SDS011;48119;53.218;6.576;2023-07-29T11:18:28;3.78;;;2.28;;
58553;SDS011;48119;53.218;6.576;2023-07-29T11:20:55;2.53;;;1.60;;
58553;SDS011;48119;53.218;6.576;2023-07-29T11:23:32;2.90;;;1.45;;
58553;SDS011;48119;53.218;6.576;2023-07-29T11:26:00;4.68;;;1.45;;
58553;SDS011;48119;53.218;6.576;2023-07-29T11:28:27;2.78;;;1.50;;
58553;SDS011;48119;53.218;6.576;2023-07-29T11:30:53;3.28;;;1.60;;
58553;SDS011;48119;53.218;6.576;2023-07-29T11:33:23;3.22;;;1.67;;
58553;SDS011;48119;53.218;6.576;2023-07-29T11:35:51;5.45;;;1.60;;
58553;SDS011;48119;53.218;6.576;2023-07-29T11:38:18;4.78;;;1.70;;
58553;SDS011;48119;53.218;6.576;2023-07-29T11:40:55;4.63;;;1.83;;
58553;SDS011;48119;53.218;6.576;2023-07-29T11:43:27;3.72;;;1.95;;
58553;SDS011;48119;53.218;6.576;2023-07-29T11:45:53;4.65;;;2.00;;
58553;SDS011;48119;53.218;6.576;2023-07-29T11:48:26;5.50;;;1.85;;
58553;SDS011;48119;53.218;6.576;2023-07-29T11:51:00;4.30;;;1.85;;
58553;SDS011;48119;53.218;6.576;2023-07-29T11:53:28;7.65;;;1.88;;
58553;SDS011;48119;53.218;6.576;2023-07-29T11:55:58;7.68;;;1.90;;
58553;SDS011;48119;53.218;6.576;2023-07-29T11:58:24;4.05;;;2.08;;
58553;SDS011;48119;53.218;6.576;2023-07-29T12:00:52;3.47;;;1.73;;
58553;SDS011;48119;53.218;6.576;2023-07-29T12:03:18;5.22;;;2.22;;
58553;SDS011;48119;53.218;6.576;2023-07-29T12:05:44;9.57;;;2.33;;
58553;SDS011;48119;53.218;6.576;2023-07-29T12:08:10;6.13;;;1.95;;
58553;SDS011;48119;53.218;6.576;2023-07-29T12:10:38;4.30;;;2.38;;
58553;SDS011;48119;53.218;6.576;2023-07-29T12:13:04;4.93;;;2.08;;
58553;SDS011;48119;53.218;6.576;2023-07-29T12:15:32;3.53;;;2.20;;
58553;SDS011;48119;53.218;6.576;2023-07-29T12:17:58;6.20;;;2.75;;
58553;SDS011;48119;53.218;6.576;2023-07-29T12:20:25;6.82;;;2.35;;
58553;SDS011;48119;53.218;6.576;2023-07-29T12:22:52;6.35;;;3.03;;
58553;SDS011;48119;53.218;6.576;2023-07-29T12:25:22;9.55;;;2.70;;
58553;SDS011;48119;53.218;6.576;2023-07-29T12:27:48;6.60;;;2.67;;
58553;SDS011;48119;53.218;6.576;2023-07-29T12:30:14;5.05;;;2.38;;
58553;SDS011;48119;53.218;6.576;2023-07-29T12:32:44;5.65;;;2.53;;
58553;SDS011;48119;53.218;6.576;2023-07-29T12:35:11;6.28;;;3.40;;
58553;SDS011;48119;53.218;6.576;2023-07-29T12:37:37;5.20;;;2.40;;
58553;SDS011;48119;53.218;6.576;2023-07-29T12:40:04;4.88;;;2.17;;
58553;SDS011;48119;53.218;6.576;2023-07-29T12:42:30;4.15;;;2.33;;
58553;SDS011;48119;53.218;6.576;2023-07-29T12:44:56;6.20;;;2.28;;
58553;SDS011;48119;53.218;6.576;2023-07-29T12:47:21;7.80;;;2.55;;
58553;SDS011;48119;53.218;6.576;2023-07-29T12:49:47;4.47;;;2.40;;
58553;SDS011;48119;53.218;6.576;2023-07-29T12:52:13;8.50;;;2.65;;
58553;SDS011;48119;53.218;6.576;2023-07-29T12:54:39;4.35;;;2.72;;
58553;SDS011;48119;53.218;6.576;2023-07-29T12:57:06;7.63;;;2.33;;
58553;SDS011;48119;53.218;6.576;2023-07-29T12:59:32;4.40;;;2.25;;
58553;SDS011;48119;53.218;6.576;2023-07-29T13:01:58;4.82;;;2.30;;
58553;SDS011;48119;53.218;6.576;2023-07-29T13:04:24;10.70;;;2.88;;
58553;SDS011;48119;53.218;6.576;2023-07-29T13:06:49;7.13;;;2.45;;
58553;SDS011;48119;53.218;6.576;2023-07-29T13:09:15;5.75;;;2.60;;
58553;SDS011;48119;53.218;6.576;2023-07-29T13:11:43;5.72;;;2.58;;
58553;SDS011;48119;53.218;6.576;2023-07-29T13:14:09;4.85;;;2.42;;
58553;SDS011;48119;53.218;6.576;2023-07-29T13:16:37;5.15;;;2.25;;
58553;SDS011;48119;53.218;6.576;2023-07-29T13:19:03;5.40;;;2.50;;
58553;SDS011;48119;53.218;6.576;2023-07-29T13:21:28;6.15;;;2.67;;
58553;SDS011;48119;53.218;6.576;2023-07-29T13:23:54;4.40;;;2.58;;
58553;SDS011;48119;53.218;6.576;2023-07-29T13:26:20;4.50;;;2.40;;
58553;SDS011;48119;53.218;6.576;2023-07-29T13:28:46;7.20;;;3.17;;
58553;SDS011;48119;53.218;6.576;2023-07-29T13:31:14;6.95;;;2.67;;
58553;SDS011;48119;53.218;6.576;2023-07-29T13:33:40;6.75;;;3.80;;
58553;SDS011;48119;53.218;6.576;2023-07-29T13:36:06;6.82;;;2.45;;
58553;SDS011;48119;53.218;6.576;2023-07-29T13:38:33;4.70;;;3.30;;
58553;SDS011;48119;53.218;6.576;2023-07-29T13:41:01;6.25;;;2.58;;
58553;SDS011;48119;53.218;6.576;2023-07-29T13:43:30;6.50;;;3.10;;
58553;SDS011;48119;53.218;6.576;2023-07-29T13:45:56;5.88;;;3.05;;
58553;SDS011;48119;53.218;6.576;2023-07-29T13:48:23;9.18;;;3.47;;
58553;SDS011;48119;53.218;6.576;2023-07-29T13:50:51;7.47;;;2.95;;
58553;SDS011;48119;53.218;6.576;2023-07-29T13:53:24;6.88;;;2.63;;
58553;SDS011;48119;53.218;6.576;2023-07-29T13:55:51;5.47;;;3.20;;
58553;SDS011;48119;53.218;6.576;2023-07-29T13:58:16;4.65;;;2.70;;
58553;SDS011;48119;53.218;6.576;2023-07-29T14:00:45;4.53;;;2.63;;
58553;SDS011;48119;53.218;6.576;2023-07-29T14:03:11;4.72;;;2.40;;
58553;SDS011;48119;53.218;6.576;2023-07-29T14:05:37;8.70;;;3.20;;
58553;SDS011;48119;53.218;6.576;2023-07-29T14:08:03;5.97;;;3.35;;
58553;SDS011;48119;53.218;6.576;2023-07-29T14:10:32;7.35;;;3.28;;
58553;SDS011;48119;53.218;6.576;2023-07-29T14:12:58;7.25;;;2.72;;
58553;SDS011;48119;53.218;6.576;2023-07-29T14:15:23;7.15;;;3.13;;
58553;SDS011;48119;53.218;6.576;2023-07-29T14:17:49;8.13;;;3.80;;
58553;SDS011;48119;53.218;6.576;2023-07-29T14:20:15;8.55;;;3.45;;
58553;SDS011;48119;53.218;6.576;2023-07-29T14:22:41;10.85;;;3.88;;
58553;SDS011;48119;53.218;6.576;2023-07-29T14:25:10;5.45;;;3.38;;
58553;SDS011;48119;53.218;6.576;2023-07-29T14:27:36;7.20;;;3.25;;
58553;SDS011;48119;53.218;6.576;2023-07-29T14:30:05;4.88;;;2.67;;
58553;SDS011;48119;53.218;6.576;2023-07-29T14:32:31;6.57;;;4.57;;
58553;SDS011;48119;53.218;6.576;2023-07-29T14:34:57;8.00;;;3.75;;
58553;SDS011;48119;53.218;6.576;2023-07-29T14:37:30;9.55;;;6.93;;
58553;SDS011;48119;53.218;6.576;2023-07-29T14:39:57;5.97;;;2.85;;
58553;SDS011;48119;53.218;6.576;2023-07-29T14:42:23;6.13;;;3.88;;
58553;SDS011;48119;53.218;6.576;2023-07-29T14:44:49;7.78;;;2.80;;
58553;SDS011;48119;53.218;6.576;2023-07-29T14:47:15;5.90;;;3.53;;
58553;SDS011;48119;53.218;6.576;2023-07-29T14:49:41;9.45;;;4.40;;
58553;SDS011;48119;53.218;6.576;2023-07-29T14:52:09;5.18;;;2.72;;
58553;SDS011;48119;53.218;6.576;2023-07-29T14:54:35;9.38;;;4.50;;
58553;SDS011;48119;53.218;6.576;2023-07-29T14:57:01;5.85;;;2.55;;
58553;SDS011;48119;53.218;6.576;2023-07-29T14:59:28;5.43;;;3.08;;
58553;SDS011;48119;53.218;6.576;2023-07-29T15:01:54;6.70;;;2.65;;